Time;durP1;ratioP1;P1;durP2;ratioP2;P2;SDS_P1;SDS_P2;PMS_P1;PMS_P2;Temp;Humidity;BMP_temperature;BMP_pressure;BME280_temperature;BME280_humidity;BME280_pressure;Samples;Min_cycle;Max_cycle;Signal;HPM_P1;HPM_P2
2023/10/20 00:01:32;;;;;;;;;;;;;;;14.63;56.84;98710.59;4981947;28;19948;-95
2023/10/20 00:03:57;;;;;;;;;;;;;;;14.59;57.00;98704.19;4982325;28;20300;-95
2023/10/20 00:06:23;;;;;;;;;;;;;;;14.54;56.93;98705.09;4982361;28;19913;-95
2023/10/20 00:08:48;;;;;;;;;;;;;;;14.51;57.16;98705.75;4980733;28;20376;-95
2023/10/20 00:11:13;;;;;;;;;;;;;;;14.51;57.65;98697.63;4981123;28;20384;-96
2023/10/20 00:13:40;;;;;;;;;;;;;;;14.43;57.80;98709.19;4982053;28;19937;-93
2023/10/20 00:16:06;;;;;;;;;;;;;;;14.39;57.92;98700.88;4966557;28;19914;-94
2023/10/20 00:18:50;;;;;;;;;;;;;;;14.43;57.90;98695.66;4967818;28;19918;-95
2023/10/20 00:21:15;;;;;;;;;;;;;;;14.39;58.02;98698.19;4982310;28;19925;-96
2023/10/20 00:23:41;;;;;;;;;;;;;;;14.37;58.32;98708.50;4969236;28;19913;-96
2023/10/20 00:26:06;;;;;;;;;;;;;;;14.34;58.26;98707.22;4965963;28;19920;-94
2023/10/20 00:28:34;;;;;;;;;;;;;;;14.34;58.30;98704.53;4983109;28;20415;-96
2023/10/20 00:30:59;;;;;;;;;;;;;;;14.36;58.60;98704.22;4984104;28;19913;-94
2023/10/20 00:33:25;;;;;;;;;;;;;;;14.35;58.69;98706.13;4969572;28;19925;-96
2023/10/20 00:35:52;;;;;;;;;;;;;;;14.36;58.49;98693.41;4986184;28;19914;-95
2023/10/20 00:38:18;;;;;;;;;;;;;;;14.30;58.71;98706.25;4968579;28;20304;-95
2023/10/20 00:40:47;;;;;;;;;;;;;;;14.27;58.91;98703.34;4967183;28;19929;-95
2023/10/20 00:43:15;;;;;;;;;;;;;;;14.24;58.86;98699.38;4982957;28;19921;-94
2023/10/20 00:45:41;;;;;;;;;;;;;;;14.23;58.78;98705.88;4966475;28;19980;-94
2023/10/20 00:48:07;;;;;;;;;;;;;;;14.22;59.01;98703.50;4966293;28;19914;-95
2023/10/20 00:50:33;;;;;;;;;;;;;;;14.19;59.16;98701.41;4966098;28;19921;-96
2023/10/20 00:52:59;;;;;;;;;;;;;;;14.24;59.34;98702.06;4965768;28;19918;-95
2023/10/20 00:55:27;;;;;;;;;;;;;;;14.17;59.28;98699.00;4983418;28;19953;-95
2023/10/20 00:57:53;;;;;;;;;;;;;;;14.15;59.42;98691.19;4982561;28;19921;-96
2023/10/20 01:00:21;;;;;;;;;;;;;;;14.18;59.40;98687.06;4966634;28;19913;-95
2023/10/20 01:02:47;;;;;;;;;;;;;;;14.19;59.45;98685.94;4965524;28;20245;-95
2023/10/20 01:05:15;;;;;;;;;;;;;;;14.13;59.65;98679.06;4981191;28;19914;-95
2023/10/20 01:07:40;;;;;;;;;;;;;;;14.06;59.67;98684.91;4982177;28;19949;-96
2023/10/20 01:10:09;;;;;;;;;;;;;;;14.01;59.78;98685.03;4965869;28;20364;-95
2023/10/20 01:12:34;;;;;;;;;;;;;;;14.00;59.86;98675.31;4973506;28;19922;-95
2023/10/20 01:15:00;;;;;;;;;;;;;;;14.01;59.79;98682.34;4997871;28;20040;-94
2023/10/20 01:17:28;;;;;;;;;;;;;;;14.02;59.78;98681.22;4981119;28;19913;-95
2023/10/20 01:19:54;;;;;;;;;;;;;;;14.05;59.72;98682.50;4981095;28;19920;-95
2023/10/20 01:22:19;;;;;;;;;;;;;;;14.03;59.76;98685.53;4981513;28;20363;-95
2023/10/20 01:24:45;;;;;;;;;;;;;;;14.03;59.89;98677.41;4980528;28;19937;-96
2023/10/20 01:27:10;;;;;;;;;;;;;;;14.06;59.69;98676.00;4980215;28;19914;-95
2023/10/20 01:29:35;;;;;;;;;;;;;;;14.08;59.77;98674.56;4997181;28;19913;-96
2023/10/20 01:32:01;;;;;;;;;;;;;;;14.07;59.97;98678.41;4980343;28;19920;-94
2023/10/20 01:34:26;;;;;;;;;;;;;;;14.12;59.84;98680.19;4996899;28;20015;-94
2023/10/20 01:36:51;;;;;;;;;;;;;;;14.13;59.73;98677.16;4979764;28;20012;-94
2023/10/20 01:39:17;;;;;;;;;;;;;;;14.15;59.86;98674.13;4980523;28;20008;-96
2023/10/20 01:41:42;;;;;;;;;;;;;;;14.10;59.99;98666.16;4980097;28;19976;-95
2023/10/20 01:44:11;;;;;;;;;;;;;;;14.12;59.77;98678.25;4980673;28;19976;-95
2023/10/20 01:46:36;;;;;;;;;;;;;;;14.12;59.80;98677.47;4979436;28;19921;-94
2023/10/20 01:49:03;;;;;;;;;;;;;;;14.12;59.84;98675.56;4996342;28;19913;-95
2023/10/20 01:51:28;;;;;;;;;;;;;;;14.17;59.57;98682.75;4997421;28;19917;-96
2023/10/20 01:53:54;;;;;;;;;;;;;;;14.15;59.83;98679.53;4979964;28;19920;-94
2023/10/20 01:56:21;;;;;;;;;;;;;;;14.10;59.84;98687.81;4979888;28;20044;-94
2023/10/20 01:58:47;;;;;;;;;;;;;;;14.12;59.79;98680.97;4996807;28;19921;-95
2023/10/20 02:01:12;;;;;;;;;;;;;;;14.11;59.97;98671.25;4995863;28;19918;-95
2023/10/20 02:03:37;;;;;;;;;;;;;;;14.13;59.99;98679.88;4980941;28;19917;-94
2023/10/20 02:06:04;;;;;;;;;;;;;;;14.14;59.86;98672.53;4980896;28;19936;-94
2023/10/20 02:08:31;;;;;;;;;;;;;;;13.98;60.38;98665.91;4980998;28;19918;-94
2023/10/20 02:10:57;;;;;;;;;;;;;;;13.88;60.42;98662.34;4997449;28;19981;-95
2023/10/20 02:13:23;;;;;;;;;;;;;;;13.86;60.52;98656.44;4980314;28;19969;-94
2023/10/20 02:15:50;;;;;;;;;;;;;;;13.88;60.45;98661.53;4981254;28;19921;-94
2023/10/20 02:18:17;;;;;;;;;;;;;;;13.88;60.61;98654.22;4981725;28;19965;-94
2023/10/20 02:20:43;;;;;;;;;;;;;;;13.82;61.03;98660.06;4982671;28;19918;-94
2023/10/20 02:23:10;;;;;;;;;;;;;;;13.79;60.79;98657.97;4982275;28;20308;-95
2023/10/20 02:25:36;;;;;;;;;;;;;;;13.79;61.18;98658.78;4981520;28;20315;-94
2023/10/20 02:28:02;;;;;;;;;;;;;;;13.77;61.33;98655.56;4997302;28;19921;-95
2023/10/20 02:30:29;;;;;;;;;;;;;;;13.74;61.39;98646.16;4981509;28;19922;-95
2023/10/20 02:32:54;;;;;;;;;;;;;;;13.72;61.39;98644.88;4984749;28;19921;-93
2023/10/20 02:35:20;;;;;;;;;;;;;;;13.68;61.68;98649.31;4984801;28;19914;-94
2023/10/20 02:37:47;;;;;;;;;;;;;;;13.64;61.61;98648.31;4985782;28;19918;-94
2023/10/20 02:40:12;;;;;;;;;;;;;;;13.64;61.64;98646.41;4985691;28;19906;-94
2023/10/20 02:42:43;;;;;;;;;;;;;;;13.65;61.80;98650.69;4984753;28;20292;-95
2023/10/20 02:45:10;;;;;;;;;;;;;;;13.57;61.91;98639.81;4986023;28;19921;-95
2023/10/20 02:47:36;;;;;;;;;;;;;;;13.54;61.87;98636.63;4985592;28;20402;-95
2023/10/20 02:50:01;;;;;;;;;;;;;;;13.41;62.27;98626.66;4986114;28;20012;-94
2023/10/20 02:52:29;;;;;;;;;;;;;;;13.43;62.12;98629.84;4985476;28;19941;-94
2023/10/20 02:54:55;;;;;;;;;;;;;;;13.37;62.30;98633.78;5002834;28;20001;-95
2023/10/20 02:57:20;;;;;;;;;;;;;;;13.33;62.43;98621.97;5005817;28;19905;-96
2023/10/20 02:59:47;;;;;;;;;;;;;;;13.32;62.42;98618.47;4984731;28;19920;-94
2023/10/20 03:02:13;;;;;;;;;;;;;;;13.31;62.47;98619.56;5000037;28;19918;-94
2023/10/20 03:04:39;;;;;;;;;;;;;;;13.29;62.42;98619.06;4984083;28;19930;-95
2023/10/20 03:07:04;;;;;;;;;;;;;;;13.28;62.42;98614.75;4983770;28;19918;-95
2023/10/20 03:09:30;;;;;;;;;;;;;;;13.22;62.81;98623.25;4983985;28;19994;-95
2023/10/20 03:11:56;;;;;;;;;;;;;;;13.21;63.16;98613.56;4999053;28;19929;-95
2023/10/20 03:14:21;;;;;;;;;;;;;;;13.22;63.01;98612.44;4982663;28;19972;-94
2023/10/20 03:16:46;;;;;;;;;;;;;;;13.20;63.31;98607.38;4983098;28;20277;-95
2023/10/20 03:19:12;;;;;;;;;;;;;;;13.13;63.77;98604.25;4983129;28;20426;-94
2023/10/20 03:21:39;;;;;;;;;;;;;;;13.13;63.74;98605.06;4984111;28;20406;-94
2023/10/20 03:24:04;;;;;;;;;;;;;;;13.15;63.72;98604.75;5000452;28;19928;-95
2023/10/20 03:26:30;;;;;;;;;;;;;;;13.19;63.79;98596.84;4983803;28;19913;-95
2023/10/20 03:29:01;;;;;;;;;;;;;;;13.18;63.90;98597.94;4984574;28;19913;-95
2023/10/20 03:31:26;;;;;;;;;;;;;;;13.07;64.00;98594.66;5000907;28;19913;-95
2023/10/20 03:33:53;;;;;;;;;;;;;;;13.09;63.92;98597.88;4982373;28;19914;-96
2023/10/20 03:36:24;;;;;;;;;;;;;;;13.10;63.86;98591.38;5002499;28;19917;-96
2023/10/20 03:38:49;;;;;;;;;;;;;;;13.09;63.85;98595.97;4986426;28;19922;-95
2023/10/20 03:41:18;;;;;;;;;;;;;;;13.06;64.13;98587.69;4999003;28;19925;-96
2023/10/20 03:43:51;;;;;;;;;;;;;;;13.02;64.26;98584.78;4983331;28;19918;-96
2023/10/20 03:46:20;;;;;;;;;;;;;;;13.02;64.34;98583.97;4999625;28;19938;-96
2023/10/20 03:48:47;;;;;;;;;;;;;;;12.94;64.49;98580.09;4999933;28;19914;-96
2023/10/20 03:51:21;;;;;;;;;;;;;;;12.89;64.62;98578.31;4999278;28;19914;-96
2023/10/20 03:53:50;;;;;;;;;;;;;;;12.93;64.46;98581.19;4983050;28;20386;-96
2023/10/20 03:56:27;;;;;;;;;;;;;;;12.96;64.36;98574.38;4983124;28;20013;-96
2023/10/20 03:58:56;;;;;;;;;;;;;;;12.96;64.42;98577.88;4983109;28;20324;-96
2023/10/20 04:01:21;;;;;;;;;;;;;;;12.93;64.56;98600.13;4982238;28;20041;-96
2023/10/20 04:03:50;;;;;;;;;;;;;;;13.00;64.64;98580.78;4982099;28;19910;-96
2023/10/20 04:06:16;;;;;;;;;;;;;;;12.96;64.48;98577.88;5000514;28;19914;-96
2023/10/20 04:08:42;;;;;;;;;;;;;;;13.01;64.49;98583.19;4982146;28;19921;-96
2023/10/20 04:11:12;;;;;;;;;;;;;;;12.94;64.78;98571.97;4983023;28;19918;-94
2023/10/20 04:13:53;;;;;;;;;;;;;;;12.93;64.48;98559.59;4997223;28;20004;-96
2023/10/20 04:16:19;;;;;;;;;;;;;;;12.93;64.35;98565.00;4998269;28;19972;-94
2023/10/20 04:18:46;;;;;;;;;;;;;;;12.99;64.24;98565.66;4999200;28;20004;-94
2023/10/20 04:21:12;;;;;;;;;;;;;;;12.89;64.69;98547.78;4984526;28;19921;-95
2023/10/20 04:24:00;;;;;;;;;;;;;;;12.93;64.40;98557.69;5001358;28;19924;-96
2023/10/20 04:26:41;;;;;;;;;;;;;;;;;;;;;
2023/10/20 04:29:23;;;;;;;;;;;;;;;13.03;64.40;98563.94;5002561;28;19989;-96
2023/10/20 04:43:35;;;;;;;;;;;;;;;13.17;63.93;98577.44;5000950;28;19929;-96
2023/10/20 04:59:35;;;;;;;;;;;;;;;13.05;64.28;98569.84;5005419;28;19983;-94
2023/10/20 05:02:13;;;;;;;;;;;;;;;13.08;64.11;98578.16;4989765;28;19972;-96
2023/10/20 05:04:46;;;;;;;;;;;;;;;13.10;64.06;98575.94;4988585;28;19922;-94
2023/10/20 05:10:25;;;;;;;;;;;;;;;;;;;;;
2023/10/20 05:13:32;;;;;;;;;;;;;;;13.32;63.40;98569.81;5021450;28;19929;-96
2023/10/20 05:16:04;;;;;;;;;;;;;;;13.46;62.94;98585.16;5007875;28;19922;-96
2023/10/20 05:21:41;;;;;;;;;;;;;;;13.43;63.55;98575.78;5381989;22;19926;-94
2023/10/20 05:24:15;;;;;;;;;;;;;;;13.57;62.62;98583.00;4981004;28;19976;-96
2023/10/20 05:27:16;;;;;;;;;;;;;;;;;;;;;
2023/10/20 05:29:54;;;;;;;;;;;;;;;13.60;62.87;98580.50;5005201;28;19999;-93
2023/10/20 05:32:20;;;;;;;;;;;;;;;13.70;62.53;98568.63;4998124;28;19917;-94
2023/10/20 05:34:55;;;;;;;;;;;;;;;;;;;;;
2023/10/20 05:37:21;;;;;;;;;;;;;;;13.88;62.71;98570.34;5002096;28;20004;-91
2023/10/20 05:39:49;;;;;;;;;;;;;;;13.96;62.16;98574.19;4999987;28;19961;-94
2023/10/20 05:42:35;;;;;;;;;;;;;;;14.02;62.36;98569.44;4978664;28;19941;-94
2023/10/20 05:45:39;;;;;;;;;;;;;;;14.10;62.03;98563.28;4946516;28;19918;-93
2023/10/20 05:50:58;;;;;;;;;;;;;;;14.23;61.98;98558.88;4957338;28;19960;-93
2023/10/20 05:53:31;;;;;;;;;;;;;;;14.35;61.38;98559.06;4961499;28;19914;-94
2023/10/20 05:55:57;;;;;;;;;;;;;;;14.41;61.52;98557.03;4943386;28;19925;-94
2023/10/20 05:58:35;;;;;;;;;;;;;;;14.46;61.61;98551.47;4959913;28;19921;-93
2023/10/20 06:01:19;;;;;;;;;;;;;;;14.59;61.75;98550.59;4959914;28;19977;-92
2023/10/20 06:03:47;;;;;;;;;;;;;;;14.67;61.00;98555.22;4957126;28;19962;-93
2023/10/20 06:06:12;;;;;;;;;;;;;;;14.83;59.95;98552.06;4977302;28;19914;-93
2023/10/20 06:08:40;;;;;;;;;;;;;;;14.89;60.90;98557.00;4949397;28;20277;-96
2023/10/20 06:11:06;;;;;;;;;;;;;;;15.00;60.62;98552.06;4968026;28;20300;-96
2023/10/20 06:13:32;;;;;;;;;;;;;;;15.12;60.59;98552.22;4978606;28;19913;-96
2023/10/20 06:15:59;;;;;;;;;;;;;;;15.26;59.91;98549.38;4988281;28;19913;-93
2023/10/20 06:18:27;;;;;;;;;;;;;;;15.36;60.31;98554.47;5002684;28;19945;-94
2023/10/20 06:21:36;;;;;;;;;;;;;;;15.51;59.85;98560.53;5001610;28;19985;-96
2023/10/20 06:24:01;;;;;;;;;;;;;;;15.59;59.49;98559.72;5324579;23;19933;-92
2023/10/20 06:26:28;;;;;;;;;;;;;;;15.68;59.25;98565.91;4970732;28;19918;-94
2023/10/20 06:28:53;;;;;;;;;;;;;;;15.80;58.21;98561.78;4962325;28;19984;-95
2023/10/20 06:36:48;;;;;;;;;;;;;;;16.22;57.19;98564.69;4977254;28;19921;-96
2023/10/20 06:39:18;;;;;;;;;;;;;;;16.31;56.68;98562.72;4966247;28;20376;-94
2023/10/20 06:42:09;;;;;;;;;;;;;;;16.43;57.60;98562.84;4974067;28;20028;-96
2023/10/20 06:44:55;;;;;;;;;;;;;;;16.54;56.34;98561.34;4894722;29;19924;-96
2023/10/20 06:47:34;;;;;;;;;;;;;;;16.63;56.90;98552.34;4965963;28;20391;-95
2023/10/20 06:50:18;;;;;;;;;;;;;;;16.78;55.70;98576.25;4965237;28;19940;-95
2023/10/20 06:52:47;;;;;;;;;;;;;;;16.88;55.75;98570.47;4980566;28;20009;-94
2023/10/20 06:58:23;;;;;;;;;;;;;;;17.11;54.92;98578.31;4990473;28;19964;-96
2023/10/20 07:01:10;;;;;;;;;;;;;;;17.20;55.20;98570.06;4980493;28;19914;-92
2023/10/20 07:03:52;;;;;;;;;;;;;;;17.31;54.90;98565.84;4985268;28;19922;-94
2023/10/20 07:07:13;;;;;;;;;;;;;;;;;;;;;
2023/10/20 07:13:12;;;;;;;;;;;;;;;17.78;52.76;98565.53;4920958;28;20000;-95
2023/10/20 07:15:59;;;;;;;;;;;;;;;17.90;52.31;98565.59;4986951;28;19967;-96
2023/10/20 07:18:54;;;;;;;;;;;;;;;18.04;51.71;98559.06;4991359;28;19914;-95
2023/10/20 07:27:36;;;;;;;;;;;;;;;18.61;49.50;98558.19;4887851;29;19940;-95
2023/10/20 07:30:31;;;;;;;;;;;;;;;18.74;48.65;98565.22;4871995;29;20373;-95
2023/10/20 07:33:01;;;;;;;;;;;;;;;18.97;47.71;98556.59;4871670;29;19922;-94
2023/10/20 07:35:45;;;;;;;;;;;;;;;19.10;47.59;98552.69;4874304;29;19916;-96
2023/10/20 07:38:12;;;;;;;;;;;;;;;19.25;48.51;98555.81;4874511;29;19923;-93
2023/10/20 07:41:06;;;;;;;;;;;;;;;19.35;48.02;98539.75;4876548;29;19916;-96
2023/10/20 07:47:17;;;;;;;;;;;;;;;;;;;;;
2023/10/20 07:49:43;;;;;;;;;;;;;;;19.82;47.18;98543.78;4928570;29;19995;-96
2023/10/20 07:52:11;;;;;;;;;;;;;;;19.97;47.05;98544.94;4940401;28;19960;-95
2023/10/20 07:54:40;;;;;;;;;;;;;;;20.10;46.22;98548.38;4951215;28;20274;-95
2023/10/20 08:06:31;;;;;;;;;;;;;;;20.69;44.71;98522.03;4933122;28;19960;-95
2023/10/20 08:09:19;;;;;;;;;;;;;;;20.78;43.92;98526.19;4983705;28;19937;-96
2023/10/20 08:14:28;;;;;;;;;;;;;;;20.96;44.17;98525.78;5390112;23;19941;-95
2023/10/20 09:12:09;;;;;;;;;;;;;;;23.73;35.85;98493.28;4986349;28;19920;-96
2023/10/20 09:14:56;;;;;;;;;;;;;;;23.89;35.28;98492.31;5025190;28;19921;-94
2023/10/20 09:17:33;;;;;;;;;;;;;;;24.03;35.00;98497.13;5006104;28;20391;-94
2023/10/20 09:20:34;;;;;;;;;;;;;;;24.12;34.71;98495.63;5005088;28;19913;-95
2023/10/20 09:23:32;;;;;;;;;;;;;;;24.23;34.45;98503.19;5026194;28;19983;-96
2023/10/20 09:26:02;;;;;;;;;;;;;;;24.27;34.51;98493.00;5011167;28;19913;-96
2023/10/20 09:28:53;;;;;;;;;;;;;;;24.37;34.78;98495.03;5021489;23;19940;-95
2023/10/20 09:31:52;;;;;;;;;;;;;;;24.55;32.77;98489.66;4990495;28;19920;-95
2023/10/20 09:34:20;;;;;;;;;;;;;;;24.73;32.51;98489.78;5002409;28;19914;-96
2023/10/20 09:50:50;;;;;;;;;;;;;;;25.22;31.21;98479.41;4997640;28;20102;-96
2023/10/20 09:53:45;;;;;;;;;;;;;;;25.26;32.20;98480.22;4972434;28;19918;-96
2023/10/20 09:56:45;;;;;;;;;;;;;;;25.27;32.45;98479.00;4989672;28;19914;-95
2023/10/20 10:03:12;;;;;;;;;;;;;;;;;;;;;
2023/10/20 10:08:23;;;;;;;;;;;;;;;25.83;30.05;98465.72;5367096;23;19932;-95
2023/10/20 10:10:49;;;;;;;;;;;;;;;25.95;29.10;98460.63;5013282;28;20567;-95
2023/10/20 10:13:21;;;;;;;;;;;;;;;26.06;29.05;98457.88;5026799;28;19941;-94
2023/10/20 10:15:57;;;;;;;;;;;;;;;26.08;28.92;98451.97;5034451;28;19945;-95
2023/10/20 10:18:24;;;;;;;;;;;;;;;26.16;29.21;98448.00;5011757;28;19905;-94
2023/10/20 10:20:56;;;;;;;;;;;;;;;26.21;28.97;98442.13;5009771;28;19917;-95
2023/10/20 10:23:41;;;;;;;;;;;;;;;;;;;;;
2023/10/20 10:26:17;;;;;;;;;;;;;;;26.39;27.74;98425.50;5015358;28;19955;-94
2023/10/20 10:29:00;;;;;;;;;;;;;;;26.54;27.25;98431.78;4997713;28;19941;-96
2023/10/20 10:32:02;;;;;;;;;;;;;;;26.60;27.61;98425.50;4993660;28;19957;-93
2023/10/20 10:34:56;;;;;;;;;;;;;;;26.65;27.83;98415.22;5013208;28;20350;-93
2023/10/20 10:40:35;;;;;;;;;;;;;;;26.49;29.29;98413.66;4981297;28;20030;-90
2023/10/20 10:46:17;;;;;;;;;;;;;;;26.55;28.60;98412.06;4969849;28;19981;-94
2023/10/20 10:49:01;;;;;;;;;;;;;;;;;;;;;
2023/10/20 10:54:31;;;;;;;;;;;;;;;;;;;;;
2023/10/20 10:57:00;;;;;;;;;;;;;;;26.69;28.87;98404.94;4985797;28;20364;-92
2023/10/20 11:02:52;;;;;;;;;;;;;;;;;;;;;
2023/10/20 11:05:23;;;;;;;;;;;;;;;26.58;28.94;98404.97;4990810;28;20000;-94
2023/10/20 11:11:46;;;;;;;;;;;;;;;;;;;;;
2023/10/20 11:14:28;;;;;;;;;;;;;;;26.81;27.71;98401.72;5013711;28;19960;-95
2023/10/20 11:17:15;;;;;;;;;;;;;;;26.90;28.57;98404.06;4975482;28;19913;-94
2023/10/20 11:19:45;;;;;;;;;;;;;;;26.91;28.30;98419.44;4967760;28;20237;-95
2023/10/20 11:22:16;;;;;;;;;;;;;;;26.99;28.32;98415.44;4965812;28;19917;-95
2023/10/20 11:24:51;;;;;;;;;;;;;;;26.99;27.30;98413.47;4966792;28;19988;-95
2023/10/20 11:27:21;;;;;;;;;;;;;;;27.07;27.97;98410.69;4966665;28;19925;-94
2023/10/20 11:29:47;;;;;;;;;;;;;;;27.13;27.51;98398.03;4966255;28;19918;-93
2023/10/20 11:32:17;;;;;;;;;;;;;;;27.24;27.62;98397.97;4966468;28;19918;-93
2023/10/20 11:34:43;;;;;;;;;;;;;;;27.27;26.75;98397.16;4968273;28;19913;-95
2023/10/20 11:37:11;;;;;;;;;;;;;;;27.37;26.78;98402.63;4998555;28;20399;-94
2023/10/20 11:39:36;;;;;;;;;;;;;;;27.43;26.83;98400.22;4966050;28;20376;-96
2023/10/20 11:42:02;;;;;;;;;;;;;;;27.54;27.20;98405.69;4966789;28;19925;-95
2023/10/20 11:44:52;;;;;;;;;;;;;;;27.56;26.99;98401.31;4982951;28;20009;-95
2023/10/20 11:47:23;;;;;;;;;;;;;;;27.55;27.09;98394.19;4967064;28;19918;-96
2023/10/20 11:49:54;;;;;;;;;;;;;;;27.61;26.67;98398.09;4973001;28;19902;-96
2023/10/20 11:58:48;;;;;;;;;;;;;;;27.90;26.77;98408.19;4961468;29;19969;-94
2023/10/20 12:01:17;;;;;;;;;;;;;;;27.93;26.59;98402.63;4940040;29;19939;-93
2023/10/20 12:09:25;;;;;;;;;;;;;;;28.27;25.61;98410.19;4898036;29;20445;-93
2023/10/20 12:18:16;;;;;;;;;;;;;;;;;;;;;
2023/10/20 12:27:45;;;;;;;;;;;;;;;;;;;;;
2023/10/20 12:30:32;;;;;;;;;;;;;;;;;;;;;
2023/10/20 12:35:58;;;;;;;;;;;;;;;28.70;22.68;98400.63;4943403;29;19915;-95
2023/10/20 12:51:23;;;;;;;;;;;;;;;;;;;;;
2023/10/20 13:10:22;;;;;;;;;;;;;;;28.86;24.07;98428.53;4885839;29;19926;-96
2023/10/20 13:13:07;;;;;;;;;;;;;;;;;;;;;
2023/10/20 13:15:41;;;;;;;;;;;;;;;28.49;25.03;98445.97;4924496;29;20457;-94
2023/10/20 13:24:41;;;;;;;;;;;;;;;28.11;24.44;98443.97;4923984;29;19922;-95
2023/10/20 13:33:13;;;;;;;;;;;;;;;27.91;26.67;98437.41;4921849;29;19915;-94
2023/10/20 13:39:21;;;;;;;;;;;;;;;27.71;28.00;98453.75;4944422;28;19914;-95
2023/10/20 13:41:37;;;;;;;;;;;;;;;27.60;28.06;98449.09;4993332;28;19914;-96
2023/10/20 13:46:52;;;;;;;;;;;;;;;27.47;27.87;98442.44;4971138;28;19914;-94
2023/10/20 13:49:25;;;;;;;;;;;;;;;27.36;29.42;98444.50;4963708;28;20326;-95
2023/10/20 13:52:07;;;;;;;;;;;;;;;;;;;;;
2023/10/20 13:55:24;;;;;;;;;;;;;;;;;;;;;
2023/10/20 13:57:39;;;;;;;;;;;;;;;27.12;29.28;98455.28;4994805;28;19914;-95
2023/10/20 14:00:35;;;;;;;;;;;;;;;27.00;29.18;98456.50;4964635;28;19928;-95
2023/10/20 14:03:33;;;;;;;;;;;;;;;;;;;;;
2023/10/20 14:06:53;;;;;;;;;;;;;;;;;;;;;
2023/10/20 14:11:55;;;;;;;;;;;;;;;;;;;;;
2023/10/20 14:17:21;;;;;;;;;;;;;;;26.57;30.08;98456.66;4927395;29;20358;-96
2023/10/20 14:20:38;;;;;;;;;;;;;;;;;;;;;
2023/10/20 14:26:26;;;;;;;;;;;;;;;26.22;31.30;98474.03;4939882;29;19926;-96
2023/10/20 14:28:58;;;;;;;;;;;;;;;26.08;31.76;98471.28;4951883;28;20210;-95
2023/10/20 14:31:57;;;;;;;;;;;;;;;25.98;32.17;98467.31;4964503;28;19914;-96
2023/10/20 14:34:41;;;;;;;;;;;;;;;25.86;31.98;98478.72;4980717;28;20399;-95
2023/10/20 14:37:16;;;;;;;;;;;;;;;25.76;32.34;98491.34;4948135;28;20344;-95
2023/10/20 14:39:56;;;;;;;;;;;;;;;25.64;32.02;98486.19;4947306;28;19930;-96
2023/10/20 14:42:41;;;;;;;;;;;;;;;25.53;31.62;98489.72;4968035;28;20016;-96
2023/10/20 14:45:41;;;;;;;;;;;;;;;25.43;32.27;98493.25;4984879;28;19918;-96
2023/10/20 14:48:28;;;;;;;;;;;;;;;;;;;;;
2023/10/20 14:51:07;;;;;;;;;;;;;;;;;;;;;
2023/10/20 14:53:54;;;;;;;;;;;;;;;;;;;;;
2023/10/20 15:02:51;;;;;;;;;;;;;;;24.71;33.72;98500.38;4923628;29;19922;-94
2023/10/20 15:05:21;;;;;;;;;;;;;;;24.56;34.96;98503.03;4950897;28;19949;-96
2023/10/20 15:11:22;;;;;;;;;;;;;;;24.37;34.89;98511.53;4922337;29;19923;-96
2023/10/20 15:13:52;;;;;;;;;;;;;;;24.28;34.79;98516.56;4915903;29;20394;-95
2023/10/20 15:16:29;;;;;;;;;;;;;;;24.19;35.38;98522.41;4943139;29;20018;-95
2023/10/20 15:18:57;;;;;;;;;;;;;;;24.04;35.25;98529.75;4943178;29;19915;-96
2023/10/20 15:21:47;;;;;;;;;;;;;;;23.96;35.20;98531.63;4966813;28;19981;-96
2023/10/20 15:24:11;;;;;;;;;;;;;;;23.90;35.09;98530.41;5013513;28;19921;-93
2023/10/20 15:26:44;;;;;;;;;;;;;;;23.88;35.70;98543.72;5033825;28;19953;-95
2023/10/20 15:29:11;;;;;;;;;;;;;;;23.77;35.89;98543.63;5030911;28;20302;-96
2023/10/20 15:31:36;;;;;;;;;;;;;;;23.70;36.11;98546.28;5032359;28;19917;-95
2023/10/20 15:34:03;;;;;;;;;;;;;;;23.63;36.73;98551.69;5033466;28;19936;-95
2023/10/20 15:36:33;;;;;;;;;;;;;;;23.56;36.17;98554.38;4998852;28;20280;-95
2023/10/20 15:39:04;;;;;;;;;;;;;;;23.53;36.62;98550.44;4997611;28;19922;-94
2023/10/20 15:41:30;;;;;;;;;;;;;;;23.46;36.41;98555.03;5000182;28;19924;-95
2023/10/20 15:43:57;;;;;;;;;;;;;;;23.40;36.38;98558.09;5032819;28;19957;-92
2023/10/20 15:49:16;;;;;;;;;;;;;;;23.19;37.29;98566.09;5002638;28;19914;-94
2023/10/20 15:51:50;;;;;;;;;;;;;;;23.07;37.14;98572.59;5012914;28;19924;-91
2023/10/20 15:54:18;;;;;;;;;;;;;;;23.03;37.20;98569.00;5006686;28;19925;-90
2023/10/20 15:56:44;;;;;;;;;;;;;;;22.99;37.13;98566.22;4976799;28;19914;-92
2023/10/20 15:59:10;;;;;;;;;;;;;;;22.96;37.57;98572.44;4961450;28;20406;-93
2023/10/20 16:01:35;;;;;;;;;;;;;;;22.88;38.28;98578.97;4995116;28;20024;-93
2023/10/20 16:04:00;;;;;;;;;;;;;;;22.82;37.70;98582.41;4983785;28;19956;-94
2023/10/20 16:06:26;;;;;;;;;;;;;;;22.78;38.00;98588.63;4983600;28;19914;-93
2023/10/20 16:08:53;;;;;;;;;;;;;;;22.73;38.57;98594.44;4982443;28;19920;-93
2023/10/20 16:11:21;;;;;;;;;;;;;;;22.65;38.38;98603.72;5035044;28;19917;-95
2023/10/20 16:13:49;;;;;;;;;;;;;;;22.60;38.26;98598.56;5006366;28;19981;-94
2023/10/20 16:16:21;;;;;;;;;;;;;;;22.53;38.37;98606.66;5006703;28;19913;-96
2023/10/20 16:18:46;;;;;;;;;;;;;;;22.44;38.25;98603.41;5008274;28;19920;-95
2023/10/20 16:21:12;;;;;;;;;;;;;;;22.39;39.09;98608.03;5005337;28;20367;-95
2023/10/20 16:23:38;;;;;;;;;;;;;;;22.33;39.19;98609.50;5004749;28;19913;-94
2023/10/20 16:26:04;;;;;;;;;;;;;;;22.30;38.91;98615.69;5005131;28;20059;-93
2023/10/20 16:28:29;;;;;;;;;;;;;;;22.24;38.87;98613.63;5005962;28;20390;-94
2023/10/20 16:30:55;;;;;;;;;;;;;;;22.19;39.54;98618.22;5022384;28;19935;-94
2023/10/20 16:33:20;;;;;;;;;;;;;;;22.17;39.04;98619.75;5004735;28;20441;-95
2023/10/20 16:35:53;;;;;;;;;;;;;;;22.10;39.40;98625.09;5020601;28;19913;-94
2023/10/20 16:38:21;;;;;;;;;;;;;;;22.10;39.26;98625.91;5005300;28;19913;-92
2023/10/20 16:40:51;;;;;;;;;;;;;;;22.13;39.07;98621.63;5021056;28;19913;-92
2023/10/20 16:43:16;;;;;;;;;;;;;;;22.08;39.76;98630.16;5003780;28;19917;-93
2023/10/20 16:45:42;;;;;;;;;;;;;;;22.04;39.47;98624.63;5002060;28;19918;-94
2023/10/20 16:48:10;;;;;;;;;;;;;;;21.98;39.94;98628.81;5002548;28;19920;-95
2023/10/20 16:50:35;;;;;;;;;;;;;;;21.92;39.92;98628.31;5054493;28;19913;-95
2023/10/20 16:53:03;;;;;;;;;;;;;;;21.85;40.83;98625.44;5004255;28;19917;-93
2023/10/20 16:55:28;;;;;;;;;;;;;;;21.75;41.33;98632.28;5005511;28;19913;-96
2023/10/20 16:57:53;;;;;;;;;;;;;;;21.68;41.49;98631.34;5003939;28;19920;-96
2023/10/20 17:00:19;;;;;;;;;;;;;;;21.60;40.61;98638.63;5004071;28;19990;-96
2023/10/20 17:03:13;;;;;;;;;;;;;;;;;;;;;
2023/10/20 17:05:42;;;;;;;;;;;;;;;21.53;40.21;98647.47;5025074;28;20426;-96
2023/10/20 17:08:12;;;;;;;;;;;;;;;21.51;40.67;98644.31;5005930;28;19919;-96
2023/10/20 17:10:42;;;;;;;;;;;;;;;21.49;40.43;98649.34;5020961;28;19948;-96
2023/10/20 17:13:10;;;;;;;;;;;;;;;21.49;40.63;98651.31;5033729;28;19944;-96
2023/10/20 17:15:35;;;;;;;;;;;;;;;21.46;40.80;98647.34;5025918;28;19913;-94
2023/10/20 17:18:16;;;;;;;;;;;;;;;21.45;40.76;98650.44;5025925;28;19913;-95
2023/10/20 17:21:04;;;;;;;;;;;;;;;21.41;41.32;98653.06;5031096;28;19948;-96
2023/10/20 17:23:30;;;;;;;;;;;;;;;21.40;40.78;98646.78;5004090;28;20312;-95
2023/10/20 17:25:56;;;;;;;;;;;;;;;21.43;40.92;98655.47;4978882;28;19948;-93
2023/10/20 17:28:21;;;;;;;;;;;;;;;21.44;40.50;98657.09;4964221;28;20379;-95
2023/10/20 17:30:57;;;;;;;;;;;;;;;21.49;40.21;98659.53;4982639;28;19914;-93
2023/10/20 17:33:23;;;;;;;;;;;;;;;21.52;40.69;98667.81;4980605;28;19920;-94
2023/10/20 17:35:48;;;;;;;;;;;;;;;21.55;40.11;98667.09;4977539;28;19922;-93
2023/10/20 17:38:13;;;;;;;;;;;;;;;21.54;40.20;98662.78;4962188;28;20388;-93
2023/10/20 17:40:39;;;;;;;;;;;;;;;21.53;40.82;98665.88;4978136;28;19918;-94
2023/10/20 17:43:04;;;;;;;;;;;;;;;21.50;40.52;98670.13;4981757;28;20379;-94
2023/10/20 17:45:34;;;;;;;;;;;;;;;21.50;40.73;98677.53;4986755;28;19922;-95
2023/10/20 17:48:00;;;;;;;;;;;;;;;21.48;40.81;98679.84;4984204;28;19965;-95
2023/10/20 17:50:28;;;;;;;;;;;;;;;21.47;40.69;98684.53;4984525;28;19921;-96
2023/10/20 17:55:47;;;;;;;;;;;;;;;21.42;41.33;98681.25;5042542;28;20366;-96
2023/10/20 17:58:15;;;;;;;;;;;;;;;21.39;40.99;98680.81;5026750;28;20394;-95
2023/10/20 18:00:44;;;;;;;;;;;;;;;21.42;41.09;98692.22;5043558;28;19913;-96
2023/10/20 18:03:19;;;;;;;;;;;;;;;21.45;41.05;98688.78;5030233;28;19917;-96
2023/10/20 18:05:45;;;;;;;;;;;;;;;21.48;40.71;98688.88;5048199;28;19925;-94